createdAt,value
2018-05-08T00:00:42.773Z,18.65
2018-05-08T00:01:42.748Z,18.62
2018-05-08T00:02:42.725Z,18.60
2018-05-08T00:03:42.712Z,18.59
2018-05-08T00:04:42.679Z,18.66
2018-05-08T00:05:42.675Z,18.56
2018-05-08T00:06:42.673Z,18.53
2018-05-08T00:07:42.603Z,18.59
2018-05-08T00:08:42.591Z,18.60
2018-05-08T00:09:42.556Z,18.55
2018-05-08T00:10:42.542Z,18.56
2018-05-08T00:11:42.518Z,18.52
2018-05-08T00:12:42.488Z,18.49
2018-05-08T00:13:42.466Z,18.53
2018-05-08T00:14:42.444Z,18.53
2018-05-08T00:15:42.415Z,18.56
2018-05-08T00:16:42.400Z,18.52
2018-05-08T00:17:42.374Z,18.49
2018-05-08T00:18:42.349Z,18.55
2018-05-08T00:19:42.326Z,18.58
2018-05-08T00:20:42.300Z,18.50
2018-05-08T00:21:42.284Z,18.60
2018-05-08T00:22:42.264Z,18.50
2018-05-08T00:23:42.231Z,18.43
2018-05-08T00:24:42.211Z,18.52
2018-05-08T00:25:42.192Z,18.52
2018-05-08T00:26:42.157Z,18.58
2018-05-08T00:27:42.146Z,18.52
2018-05-08T00:28:42.112Z,18.45
2018-05-08T00:29:42.096Z,18.41
2018-05-08T00:30:42.073Z,18.45
2018-05-08T00:31:42.044Z,18.47
2018-05-08T00:32:42.028Z,18.59
2018-05-08T00:33:41.999Z,18.59
2018-05-08T00:34:41.973Z,18.58
2018-05-08T00:35:41.956Z,18.49
2018-05-08T00:36:41.932Z,18.43
2018-05-08T00:37:41.906Z,18.49
2018-05-08T00:38:41.874Z,18.49
2018-05-08T00:39:41.864Z,18.50
2018-05-08T00:40:41.837Z,18.47
2018-05-08T00:41:41.805Z,18.47
2018-05-08T00:42:41.785Z,18.47
2018-05-08T00:43:41.761Z,18.50
2018-05-08T00:44:41.741Z,18.49
2018-05-08T00:45:41.713Z,18.43
2018-05-08T00:46:41.693Z,18.47
2018-05-08T00:47:41.670Z,18.47
2018-05-08T00:48:41.645Z,18.44
2018-05-08T00:49:41.622Z,18.50
2018-05-08T00:50:41.601Z,18.49
2018-05-08T00:51:41.573Z,18.43
2018-05-08T00:52:41.556Z,18.34
2018-05-08T00:53:41.528Z,18.44
2018-05-08T00:54:41.504Z,18.41
2018-05-08T00:55:41.478Z,18.43
2018-05-08T00:56:41.454Z,18.40
2018-05-08T00:57:41.434Z,18.29
2018-05-08T00:58:41.405Z,18.31
2018-05-08T00:59:41.387Z,18.40
2018-05-08T01:00:41.364Z,18.37
2018-05-08T01:01:41.336Z,18.33
2018-05-08T01:02:41.323Z,18.28
2018-05-08T01:03:41.290Z,18.26
2018-05-08T01:04:41.269Z,18.28
2018-05-08T01:05:41.261Z,18.31
2018-05-08T01:06:41.214Z,18.34
2018-05-08T01:07:41.200Z,18.25
2018-05-08T01:08:41.173Z,18.26
2018-05-08T01:09:41.147Z,18.33
2018-05-08T01:10:41.121Z,18.22
2018-05-08T01:11:41.188Z,18.29
2018-05-08T01:12:41.083Z,18.18
2018-05-08T01:13:41.056Z,18.16
2018-05-08T01:14:41.029Z,18.25
2018-05-08T01:15:41.013Z,18.33
2018-05-08T01:16:40.984Z,18.08
2018-05-08T01:17:40.959Z,18.16
2018-05-08T01:18:40.942Z,18.23
2018-05-08T01:19:40.918Z,18.16
2018-05-08T01:20:40.896Z,18.16
2018-05-08T01:21:40.871Z,18.20
2018-05-08T01:22:40.842Z,18.18
2018-05-08T01:23:40.821Z,18.29
2018-05-08T01:24:40.793Z,18.25
2018-05-08T01:25:40.766Z,18.29
2018-05-08T01:26:40.747Z,18.29
2018-05-08T01:27:40.728Z,18.26
2018-05-08T01:28:40.696Z,18.20
2018-05-08T01:29:40.682Z,18.33
2018-05-08T01:30:40.651Z,18.26
2018-05-08T01:31:40.633Z,18.16
2018-05-08T01:32:40.607Z,18.15
2018-05-08T01:33:40.583Z,18.15
2018-05-08T01:34:40.556Z,18.15
2018-05-08T01:35:40.534Z,18.20
2018-05-08T01:36:40.513Z,18.18
2018-05-08T01:37:40.483Z,18.18
2018-05-08T01:38:40.467Z,18.16
2018-05-08T01:39:40.444Z,18.22
2018-05-08T01:40:40.412Z,18.16
2018-05-08T01:41:40.391Z,18.05
2018-05-08T01:42:40.364Z,18.07
2018-05-08T01:43:40.345Z,18.07
2018-05-08T01:44:40.320Z,18.03
2018-05-08T01:45:40.299Z,18.11
2018-05-08T01:46:40.274Z,18.07
2018-05-08T01:47:40.253Z,18.11
2018-05-08T01:48:40.222Z,18.01
2018-05-08T01:49:40.201Z,18.04
2018-05-08T01:50:40.180Z,18.07
2018-05-08T01:51:40.153Z,18.08
2018-05-08T01:52:40.136Z,18.03
2018-05-08T01:53:40.110Z,18.00
2018-05-08T01:54:40.082Z,17.97
2018-05-08T01:55:40.063Z,17.92
2018-05-08T01:56:40.037Z,17.97
2018-05-08T01:57:40.009Z,17.97
2018-05-08T01:58:39.993Z,17.87
2018-05-08T01:59:39.963Z,17.87
2018-05-08T02:00:39.938Z,17.86
2018-05-08T02:01:39.917Z,17.83
2018-05-08T02:02:39.892Z,17.82
2018-05-08T02:03:39.871Z,17.87
2018-05-08T02:04:39.846Z,17.79
2018-05-08T02:05:39.831Z,17.82
2018-05-08T02:06:39.798Z,17.83
2018-05-08T02:07:39.775Z,17.82
2018-05-08T02:08:39.753Z,17.71
2018-05-08T02:09:39.727Z,17.76
2018-05-08T02:10:39.710Z,17.78
2018-05-08T02:11:39.686Z,17.76
2018-05-08T02:12:39.657Z,17.74
2018-05-08T02:13:39.631Z,17.64
2018-05-08T02:14:39.605Z,17.70
2018-05-08T02:15:39.588Z,17.57
2018-05-08T02:16:39.567Z,17.65
2018-05-08T02:17:39.534Z,17.70
2018-05-08T02:18:39.523Z,17.63
2018-05-08T02:19:39.490Z,17.68
2018-05-08T02:20:39.469Z,17.70
2018-05-08T02:21:39.447Z,17.67
2018-05-08T02:22:39.416Z,17.67
2018-05-08T02:23:39.401Z,17.64
2018-05-08T02:24:39.374Z,17.70
2018-05-08T02:25:39.345Z,17.65
2018-05-08T02:26:39.328Z,17.64
2018-05-08T02:27:39.307Z,17.70
2018-05-08T02:28:39.281Z,17.65
2018-05-08T02:29:39.251Z,17.70
2018-05-08T02:30:39.228Z,17.68
2018-05-08T02:31:39.206Z,17.68
2018-05-08T02:32:39.182Z,17.64
2018-05-08T02:33:39.155Z,17.67
2018-05-08T02:34:39.134Z,17.71
2018-05-08T02:35:39.108Z,17.68
2018-05-08T02:36:39.090Z,17.63
2018-05-08T02:37:39.064Z,17.54
2018-05-08T02:38:39.035Z,17.57
2018-05-08T02:39:39.019Z,17.45
2018-05-08T02:40:38.990Z,17.54
2018-05-08T02:41:38.966Z,17.39
2018-05-08T02:42:38.945Z,17.44
2018-05-08T02:43:38.921Z,17.44
2018-05-08T02:44:38.895Z,17.39
2018-05-08T02:45:38.874Z,17.41
2018-05-08T02:46:38.848Z,17.44
2018-05-08T02:47:38.820Z,17.44
2018-05-08T02:48:38.798Z,17.38
2018-05-08T02:49:38.776Z,17.33
2018-05-08T02:50:38.757Z,17.27
2018-05-08T02:51:38.727Z,17.29
2018-05-08T02:52:38.731Z,17.27
2018-05-08T02:53:38.685Z,17.33
2018-05-08T02:54:38.651Z,17.27
2018-05-08T02:55:38.636Z,17.33
2018-05-08T02:56:38.607Z,17.29
2018-05-08T02:57:38.582Z,17.33
2018-05-08T02:58:38.564Z,17.30
2018-05-08T02:59:38.536Z,17.23
2018-05-08T03:00:38.516Z,17.27
2018-05-08T03:01:38.482Z,17.20
2018-05-08T03:02:38.470Z,17.24
2018-05-08T03:03:38.441Z,17.27
2018-05-08T03:04:38.412Z,17.26
2018-05-08T03:05:38.396Z,17.16
2018-05-08T03:06:38.372Z,17.19
2018-05-08T03:07:38.383Z,17.12
2018-05-08T03:08:38.315Z,17.04
2018-05-08T03:09:38.296Z,17.09
2018-05-08T03:10:38.273Z,17.16
2018-05-08T03:11:38.246Z,17.12
2018-05-08T03:12:38.229Z,17.05
2018-05-08T03:13:38.202Z,17.05
2018-05-08T03:14:38.175Z,17.02
2018-05-08T03:15:38.156Z,16.89
2018-05-08T03:16:38.124Z,17.01
2018-05-08T03:17:38.110Z,17.02
2018-05-08T03:18:38.083Z,17.01
2018-05-08T03:19:38.060Z,17.01
2018-05-08T03:20:38.032Z,16.93
2018-05-08T03:21:38.012Z,16.91
2018-05-08T03:22:37.982Z,16.87
2018-05-08T03:23:37.960Z,16.91
2018-05-08T03:24:37.940Z,16.94
2018-05-08T03:25:37.909Z,17.01
2018-05-08T03:26:37.893Z,17.02
2018-05-08T03:27:37.876Z,16.94
2018-05-08T03:28:37.834Z,16.91
2018-05-08T03:29:37.822Z,16.99
2018-05-08T03:30:37.787Z,16.86
2018-05-08T03:31:37.765Z,16.79
2018-05-08T03:32:37.746Z,16.84
2018-05-08T03:33:37.725Z,16.78
2018-05-08T03:34:37.696Z,16.84
2018-05-08T03:35:37.669Z,16.84
2018-05-08T03:36:37.646Z,16.68
2018-05-08T03:37:37.623Z,16.71
2018-05-08T03:38:37.600Z,16.78
2018-05-08T03:39:37.581Z,16.75
2018-05-08T03:40:37.547Z,16.72
2018-05-08T03:41:37.532Z,16.72
2018-05-08T03:42:37.501Z,16.71
2018-05-08T03:43:37.473Z,16.71
2018-05-08T03:44:37.459Z,16.76
2018-05-08T03:45:37.423Z,16.72
2018-05-08T03:46:37.411Z,16.71
2018-05-08T03:47:37.386Z,16.78
2018-05-08T03:48:37.355Z,16.69
2018-05-08T03:49:37.337Z,16.71
2018-05-08T03:50:37.315Z,16.81
2018-05-08T03:51:37.285Z,16.69
2018-05-08T03:52:37.263Z,16.72
2018-05-08T03:53:37.235Z,16.78
2018-05-08T03:54:37.216Z,16.69
2018-05-08T03:55:37.190Z,16.68
2018-05-08T03:56:37.163Z,16.78
2018-05-08T03:57:37.137Z,16.75
2018-05-08T03:58:37.119Z,16.81
2018-05-08T03:59:37.089Z,16.68
2018-05-08T04:00:37.069Z,16.69
2018-05-08T04:01:37.048Z,16.75
2018-05-08T04:02:37.014Z,16.75
2018-05-08T04:03:37.007Z,16.81
2018-05-08T04:04:36.966Z,16.71
2018-05-08T04:05:36.948Z,16.78
2018-05-08T04:06:36.952Z,16.76
2018-05-08T04:07:36.894Z,16.72
2018-05-08T04:08:36.876Z,16.71
2018-05-08T04:09:36.850Z,16.72
2018-05-08T04:10:36.824Z,16.75
2018-05-08T04:11:36.806Z,16.69
2018-05-08T04:12:36.775Z,16.78
2018-05-08T04:13:36.757Z,16.74
2018-05-08T04:14:36.726Z,16.69
2018-05-08T04:15:36.705Z,16.66
2018-05-08T04:16:36.686Z,16.72
2018-05-08T04:17:36.655Z,16.66
2018-05-08T04:18:36.637Z,16.66
2018-05-08T04:19:36.613Z,16.69
2018-05-08T04:20:36.583Z,16.69
2018-05-08T04:21:36.561Z,16.66
2018-05-08T04:22:36.539Z,16.65
2018-05-08T04:23:36.516Z,16.65
2018-05-08T04:24:36.489Z,16.65
2018-05-08T04:25:36.467Z,16.57
2018-05-08T04:26:36.435Z,16.66
2018-05-08T04:27:36.415Z,16.66
2018-05-08T04:28:36.388Z,16.66
2018-05-08T04:29:36.368Z,16.61
2018-05-08T04:30:36.340Z,16.66
2018-05-08T04:31:36.314Z,16.75
2018-05-08T04:32:36.302Z,16.78
2018-05-08T04:33:36.272Z,16.69
2018-05-08T04:34:36.244Z,16.69
2018-05-08T04:35:36.219Z,16.83
2018-05-08T04:36:36.227Z,16.81
2018-05-08T04:37:36.178Z,16.87
2018-05-08T04:38:36.152Z,16.84
2018-05-08T04:39:36.121Z,16.89
2018-05-08T04:40:36.099Z,16.90
2018-05-08T04:41:36.079Z,16.89
2018-05-08T04:42:36.050Z,16.90
2018-05-08T04:43:36.024Z,16.96
2018-05-08T04:44:36.019Z,16.97
2018-05-08T04:45:35.980Z,16.91
2018-05-08T04:46:35.949Z,16.90
2018-05-08T04:47:35.931Z,16.90
2018-05-08T04:48:35.905Z,16.90
2018-05-08T04:49:35.897Z,16.91
2018-05-08T04:50:35.861Z,16.90
2018-05-08T04:51:35.836Z,17.05
2018-05-08T04:52:35.815Z,17.08
2018-05-08T04:53:35.789Z,17.05
2018-05-08T04:54:35.762Z,16.96
2018-05-08T04:55:35.734Z,17.04
2018-05-08T04:56:35.713Z,17.05
2018-05-08T04:57:35.685Z,17.06
2018-05-08T04:58:35.667Z,17.11
2018-05-08T04:59:35.637Z,17.11
2018-05-08T05:00:35.621Z,17.06
2018-05-08T05:01:35.591Z,17.08
2018-05-08T05:02:35.584Z,17.11
2018-05-08T05:03:35.546Z,17.14
2018-05-08T05:04:35.516Z,17.08
2018-05-08T05:05:35.492Z,17.08
2018-05-08T05:06:35.475Z,17.11
2018-05-08T05:07:35.449Z,17.08
2018-05-08T05:08:35.418Z,17.08
2018-05-08T05:09:35.396Z,17.11
2018-05-08T05:10:35.373Z,17.23
2018-05-08T05:11:35.344Z,17.22
2018-05-08T05:12:35.329Z,17.29
2018-05-08T05:13:35.303Z,17.26
2018-05-08T05:14:35.273Z,17.33
2018-05-08T05:15:35.250Z,17.31
2018-05-08T05:16:35.252Z,17.34
2018-05-08T05:17:35.206Z,17.31
2018-05-08T05:18:35.174Z,17.39
2018-05-08T05:19:35.157Z,17.34
2018-05-08T05:20:35.129Z,17.48
2018-05-08T05:21:35.101Z,17.41
2018-05-08T05:22:35.086Z,17.52
2018-05-08T05:23:35.055Z,17.57
2018-05-08T05:24:35.100Z,17.54
2018-05-08T05:25:35.007Z,17.64
2018-05-08T05:26:34.985Z,17.64
2018-05-08T05:27:34.961Z,17.65
2018-05-08T05:28:34.936Z,17.72
2018-05-08T05:29:34.914Z,17.70
2018-05-08T05:30:34.892Z,17.71
2018-05-08T05:31:34.901Z,17.76
2018-05-08T05:32:34.852Z,17.80
2018-05-08T05:33:34.819Z,17.74
2018-05-08T05:34:34.792Z,17.80
2018-05-08T05:35:34.774Z,17.76
2018-05-08T05:36:34.743Z,17.78
2018-05-08T05:37:34.720Z,17.82
2018-05-08T05:38:34.702Z,17.86
2018-05-08T05:39:34.674Z,17.86
2018-05-08T05:40:34.656Z,17.87
2018-05-08T05:41:34.626Z,17.87
2018-05-08T05:42:34.626Z,17.97
2018-05-08T05:43:34.573Z,18.01
2018-05-08T05:44:34.550Z,18.04
2018-05-08T05:45:34.525Z,18.07
2018-05-08T05:46:34.510Z,18.11
2018-05-08T05:47:34.487Z,18.07
2018-05-08T05:48:34.454Z,18.08
2018-05-08T05:49:34.438Z,18.11
2018-05-08T05:50:34.414Z,18.22
2018-05-08T05:51:34.419Z,18.19
2018-05-08T05:52:34.371Z,18.16
2018-05-08T05:53:34.334Z,18.19
2018-05-08T05:54:34.319Z,18.19
2018-05-08T05:55:34.289Z,18.34
2018-05-08T05:56:34.266Z,18.25
2018-05-08T05:57:34.237Z,18.25
2018-05-08T05:58:34.223Z,18.23
2018-05-08T05:59:34.198Z,18.40
2018-05-08T06:00:34.173Z,18.31
2018-05-08T06:01:34.151Z,18.35
2018-05-08T06:02:34.125Z,18.47
2018-05-08T06:03:34.099Z,18.50
2018-05-08T06:04:34.084Z,18.53
2018-05-08T06:05:34.056Z,18.47
2018-05-08T06:06:34.027Z,18.53
2018-05-08T06:07:34.008Z,18.53
2018-05-08T06:08:33.976Z,18.58
2018-05-08T06:09:33.954Z,18.59
2018-05-08T06:10:33.933Z,18.68
2018-05-08T06:11:33.909Z,18.68
2018-05-08T06:12:33.888Z,18.66
2018-05-08T06:13:33.859Z,18.65
2018-05-08T06:14:33.838Z,18.83
2018-05-08T06:15:33.809Z,18.77
2018-05-08T06:16:33.790Z,18.77
2018-05-08T06:17:33.772Z,18.75
2018-05-08T06:18:33.746Z,18.81
2018-05-08T06:19:33.722Z,18.84
2018-05-08T06:20:33.691Z,18.84
2018-05-08T06:21:33.718Z,18.84
2018-05-08T06:22:33.641Z,18.90
2018-05-08T06:23:33.625Z,18.98
2018-05-08T06:24:33.604Z,18.99
2018-05-08T06:25:33.574Z,19.12
2018-05-08T06:26:33.619Z,19.11
2018-05-08T06:27:33.532Z,19.19
2018-05-08T06:28:33.531Z,19.12
2018-05-08T06:29:33.476Z,19.18
2018-05-08T06:30:33.458Z,19.19
2018-05-08T06:31:33.440Z,19.22
2018-05-08T06:32:33.407Z,19.24
2018-05-08T06:33:33.392Z,19.31
2018-05-08T06:34:33.389Z,19.31
2018-05-08T06:35:33.342Z,19.37
2018-05-08T06:36:33.317Z,19.34
2018-05-08T06:37:33.289Z,19.45
2018-05-08T06:38:33.274Z,19.45
2018-05-08T06:39:33.314Z,19.44
2018-05-08T06:40:33.235Z,19.49
2018-05-08T06:41:33.208Z,19.56
2018-05-08T06:42:33.170Z,19.52
2018-05-08T06:43:33.158Z,19.52
2018-05-08T06:44:33.125Z,19.56
2018-05-08T06:45:33.104Z,19.59
2018-05-08T06:46:33.155Z,19.67
2018-05-08T06:47:33.054Z,19.67
2018-05-08T06:48:33.032Z,19.73
2018-05-08T06:49:33.016Z,19.74
2018-05-08T06:50:32.985Z,19.81
2018-05-08T06:51:32.970Z,19.88
2018-05-08T06:52:32.937Z,19.86
2018-05-08T06:53:32.914Z,19.89
2018-05-08T06:54:32.898Z,19.95
2018-05-08T06:55:32.867Z,19.94
2018-05-08T06:56:32.851Z,19.91
2018-05-08T06:57:32.823Z,19.99
2018-05-08T06:58:32.796Z,19.88
2018-05-08T06:59:32.778Z,19.96
2018-05-08T07:00:32.758Z,20.04
2018-05-08T07:01:32.725Z,20.03
2018-05-08T07:02:32.704Z,20.03
2018-05-08T07:03:32.687Z,20.10
2018-05-08T07:04:32.663Z,20.21
2018-05-08T07:05:32.640Z,20.13
2018-05-08T07:06:32.609Z,20.21
2018-05-08T07:07:32.593Z,20.28
2018-05-08T07:08:32.567Z,20.24
2018-05-08T07:09:32.539Z,20.25
2018-05-08T07:10:32.524Z,20.22
2018-05-08T07:11:32.495Z,20.29
2018-05-08T07:12:32.475Z,20.41
2018-05-08T07:13:32.455Z,20.34
2018-05-08T07:14:32.425Z,20.37
2018-05-08T07:15:32.409Z,20.44
2018-05-08T07:16:32.378Z,20.52
2018-05-08T07:17:32.357Z,20.44
2018-05-08T07:18:32.327Z,20.59
2018-05-08T07:19:32.307Z,20.62
2018-05-08T07:20:32.284Z,20.60
2018-05-08T07:21:32.264Z,20.59
2018-05-08T07:22:32.240Z,20.66
2018-05-08T07:23:32.234Z,20.70
2018-05-08T07:24:32.193Z,20.66
2018-05-08T07:25:32.166Z,20.66
2018-05-08T07:26:32.152Z,20.66
2018-05-08T07:27:32.124Z,20.80
2018-05-08T07:28:32.106Z,20.81
2018-05-08T07:29:32.081Z,20.82
2018-05-08T07:30:32.050Z,20.80
2018-05-08T07:31:32.034Z,20.78
2018-05-08T07:32:32.009Z,20.82
2018-05-08T07:33:31.992Z,20.88
2018-05-08T07:34:32.005Z,20.88
2018-05-08T07:35:31.944Z,20.95
2018-05-08T07:36:31.917Z,21.00
2018-05-08T07:37:31.895Z,21.06
2018-05-08T07:38:31.870Z,21.12
2018-05-08T07:39:31.847Z,21.11
2018-05-08T07:40:31.828Z,21.21
2018-05-08T07:41:31.806Z,21.15
2018-05-08T07:42:31.774Z,21.22
2018-05-08T07:43:31.758Z,21.27
2018-05-08T07:44:31.731Z,21.29
2018-05-08T07:45:31.721Z,21.33
2018-05-08T07:46:31.690Z,21.36
2018-05-08T07:47:31.664Z,21.40
2018-05-08T07:48:31.639Z,21.43
2018-05-08T07:49:31.619Z,21.50
2018-05-08T07:50:31.598Z,21.51
2018-05-08T07:51:31.575Z,21.55
2018-05-08T07:52:31.545Z,21.60
2018-05-08T07:53:31.534Z,21.64
2018-05-08T07:54:31.499Z,21.64
2018-05-08T07:55:31.482Z,21.70
2018-05-08T07:56:31.456Z,21.60
2018-05-08T07:57:31.513Z,21.64
2018-05-08T07:58:31.410Z,21.64
2018-05-08T07:59:31.388Z,21.61
2018-05-08T08:00:31.369Z,21.66
2018-05-08T08:01:31.343Z,21.77
2018-05-08T08:02:31.321Z,21.70
2018-05-08T08:03:31.296Z,21.76
2018-05-08T08:04:31.279Z,21.75
2018-05-08T08:05:31.250Z,21.77
2018-05-08T08:06:31.224Z,21.77
2018-05-08T08:07:31.269Z,21.95
2018-05-08T08:08:31.187Z,22.00
2018-05-08T08:09:31.162Z,22.07
2018-05-08T08:10:31.137Z,22.00
2018-05-08T08:11:31.120Z,22.06
2018-05-08T08:12:31.089Z,22.10
2018-05-08T08:13:31.077Z,22.15
2018-05-08T08:14:31.042Z,22.11
2018-05-08T08:15:31.020Z,22.15
2018-05-08T08:16:31.010Z,22.11
2018-05-08T08:17:30.975Z,22.29
2018-05-08T08:18:30.971Z,22.23
2018-05-08T08:19:30.935Z,22.32
2018-05-08T08:20:30.911Z,22.30
2018-05-08T08:21:30.883Z,22.38
2018-05-08T08:22:30.863Z,22.36
2018-05-08T08:23:30.840Z,22.38
2018-05-08T08:24:30.816Z,22.32
2018-05-08T08:25:30.802Z,22.43
2018-05-08T08:26:30.771Z,22.44
2018-05-08T08:27:30.755Z,22.51
2018-05-08T08:28:30.732Z,22.59
2018-05-08T08:29:30.703Z,22.57
2018-05-08T08:30:30.689Z,22.60
2018-05-08T08:31:30.664Z,22.53
2018-05-08T08:32:30.642Z,22.57
2018-05-08T08:33:30.622Z,22.57
2018-05-08T08:34:30.589Z,22.60
2018-05-08T08:35:30.577Z,22.63
2018-05-08T08:36:30.547Z,22.60
2018-05-08T08:37:30.528Z,22.73
2018-05-08T08:38:30.507Z,22.70
2018-05-08T08:39:30.481Z,22.70
2018-05-08T08:40:30.466Z,22.75
2018-05-08T08:41:30.439Z,22.83
2018-05-08T08:42:30.416Z,22.75
2018-05-08T08:43:30.391Z,22.83
2018-05-08T08:44:30.372Z,22.84
2018-05-08T08:45:30.353Z,22.88
2018-05-08T08:46:30.433Z,22.91
2018-05-08T08:47:30.310Z,22.94
2018-05-08T08:48:30.280Z,22.94
2018-05-08T08:49:30.252Z,22.98
2018-05-08T08:50:30.242Z,22.98
2018-05-08T08:51:30.214Z,23.02
2018-05-08T08:52:30.244Z,22.99
2018-05-08T08:53:30.173Z,23.00
2018-05-08T08:54:30.146Z,23.02
2018-05-08T08:55:30.128Z,22.99
2018-05-08T08:56:30.099Z,23.03
2018-05-08T08:57:30.078Z,22.99
2018-05-08T08:58:30.060Z,23.06
2018-05-08T08:59:30.038Z,23.08
2018-05-08T09:00:30.013Z,23.13
2018-05-08T09:01:29.992Z,23.15
2018-05-08T09:02:29.967Z,23.12
2018-05-08T09:03:29.948Z,23.18
2018-05-08T09:04:29.927Z,23.21
2018-05-08T09:05:29.900Z,23.13
2018-05-08T09:06:29.880Z,23.32
2018-05-08T09:07:29.857Z,23.34
2018-05-08T09:08:29.836Z,23.41
2018-05-08T09:09:29.817Z,23.36
2018-05-08T09:10:29.785Z,23.40
2018-05-08T09:11:29.774Z,23.50
2018-05-08T09:12:29.747Z,23.41
2018-05-08T09:13:29.725Z,23.48
2018-05-08T09:14:29.702Z,23.55
2018-05-08T09:15:29.685Z,23.51
2018-05-08T09:16:29.656Z,23.62
2018-05-08T09:17:29.646Z,23.54
2018-05-08T09:18:29.608Z,23.58
2018-05-08T09:19:29.587Z,23.54
2018-05-08T09:20:29.573Z,23.65
2018-05-08T09:21:29.542Z,23.68
2018-05-08T09:22:29.530Z,23.65
2018-05-08T09:23:29.505Z,23.65
2018-05-08T09:24:29.486Z,23.71
2018-05-08T09:25:29.460Z,23.69
2018-05-08T09:26:29.436Z,23.71
2018-05-08T09:27:29.476Z,23.81
2018-05-08T09:28:29.394Z,23.84
2018-05-08T09:29:29.369Z,23.83
2018-05-08T09:30:29.344Z,23.77
2018-05-08T09:31:29.332Z,23.86
2018-05-08T09:32:29.304Z,23.86
2018-05-08T09:33:29.286Z,23.98
2018-05-08T09:34:29.272Z,23.95
2018-05-08T09:35:29.237Z,24.01
2018-05-08T09:36:29.220Z,24.03
2018-05-08T09:37:29.198Z,24.14
2018-05-08T09:38:29.169Z,24.06
2018-05-08T09:39:29.152Z,24.13
2018-05-08T09:40:29.129Z,24.13
2018-05-08T09:41:29.110Z,24.11
2018-05-08T09:42:29.125Z,24.03
2018-05-08T09:43:29.062Z,24.06
2018-05-08T09:44:29.046Z,24.17
2018-05-08T09:45:29.015Z,24.26
2018-05-08T09:46:29.005Z,24.17
2018-05-08T09:47:28.973Z,24.18
2018-05-08T09:48:28.954Z,24.10
2018-05-08T09:49:28.932Z,24.18
2018-05-08T09:50:28.911Z,24.18
2018-05-08T09:51:28.891Z,24.23
2018-05-08T09:52:28.863Z,24.29
2018-05-08T09:53:28.847Z,24.33
2018-05-08T09:54:28.821Z,24.28
2018-05-08T09:55:28.795Z,24.42
2018-05-08T09:56:28.783Z,24.36
2018-05-08T09:57:28.756Z,24.43
2018-05-08T09:58:28.737Z,24.43
2018-05-08T09:59:28.715Z,24.55
2018-05-08T10:00:28.693Z,24.48
2018-05-08T10:01:28.666Z,24.60
2018-05-08T10:02:28.648Z,24.58
2018-05-08T10:03:28.626Z,24.70
2018-05-08T10:04:28.602Z,24.77
2018-05-08T10:05:28.583Z,24.69
2018-05-08T10:06:28.559Z,24.80
2018-05-08T10:07:28.538Z,24.88
2018-05-08T10:08:28.518Z,25.01
2018-05-08T10:09:28.496Z,24.92
2018-05-08T10:10:28.471Z,24.85
2018-05-08T10:11:28.450Z,24.99
2018-05-08T10:12:28.433Z,25.04
2018-05-08T10:13:28.403Z,25.04
2018-05-08T10:14:28.382Z,25.07
2018-05-08T10:15:28.365Z,25.01
2018-05-08T10:16:28.351Z,25.07
2018-05-08T10:17:28.324Z,25.04
2018-05-08T10:18:28.298Z,25.07
2018-05-08T10:19:28.277Z,25.14
2018-05-08T10:20:28.258Z,25.14
2018-05-08T10:21:28.234Z,25.07
2018-05-08T10:22:28.217Z,25.04
2018-05-08T10:23:28.192Z,25.08
2018-05-08T10:24:28.167Z,25.16
2018-05-08T10:25:28.148Z,25.18
2018-05-08T10:26:28.127Z,25.22
2018-05-08T10:27:28.103Z,25.10
2018-05-08T10:28:28.086Z,25.14
2018-05-08T10:29:28.057Z,25.22
2018-05-08T10:30:28.037Z,25.16
2018-05-08T10:31:28.023Z,25.21
2018-05-08T10:32:28.056Z,25.18
2018-05-08T10:33:27.980Z,25.14
2018-05-08T10:34:27.952Z,25.16
2018-05-08T10:35:27.934Z,25.22
2018-05-08T10:36:27.909Z,25.13
2018-05-08T10:37:27.885Z,25.22
2018-05-08T10:38:27.871Z,25.16
2018-05-08T10:39:27.844Z,25.18
2018-05-08T10:40:27.828Z,25.25
2018-05-08T10:41:27.807Z,25.32
2018-05-08T10:42:27.777Z,25.29
2018-05-08T10:43:27.757Z,25.35
2018-05-08T10:44:27.740Z,25.32
2018-05-08T10:45:27.712Z,25.44
2018-05-08T10:46:27.693Z,25.47
2018-05-08T10:47:27.681Z,25.44
2018-05-08T10:48:27.652Z,25.48
2018-05-08T10:49:27.628Z,25.53
2018-05-08T10:50:27.614Z,25.46
2018-05-08T10:51:27.586Z,25.51
2018-05-08T10:52:27.571Z,25.53
2018-05-08T10:53:27.544Z,25.46
2018-05-08T10:54:27.524Z,25.53
2018-05-08T10:55:27.503Z,25.58
2018-05-08T10:56:27.483Z,25.63
2018-05-08T10:57:27.459Z,25.58
2018-05-08T10:58:27.438Z,25.63
2018-05-08T10:59:27.422Z,25.65
2018-05-08T11:00:27.393Z,25.65
2018-05-08T11:01:27.374Z,25.72
2018-05-08T11:02:27.350Z,25.60
2018-05-08T11:03:27.336Z,25.66
2018-05-08T11:04:27.313Z,25.72
2018-05-08T11:05:27.286Z,25.70
2018-05-08T11:06:27.269Z,25.75
2018-05-08T11:07:27.248Z,25.73
2018-05-08T11:08:27.227Z,25.80
2018-05-08T11:09:27.207Z,25.78
2018-05-08T11:10:27.180Z,25.88
2018-05-08T11:11:27.164Z,25.88
2018-05-08T11:12:27.146Z,25.93
2018-05-08T11:13:27.115Z,25.93
2018-05-08T11:14:27.098Z,25.85
2018-05-08T11:15:27.072Z,25.84
2018-05-08T11:16:27.056Z,25.83
2018-05-08T11:17:27.036Z,25.90
2018-05-08T11:18:27.008Z,25.93
2018-05-08T11:19:26.985Z,25.90
2018-05-08T11:20:26.968Z,25.95
2018-05-08T11:21:26.943Z,25.91
2018-05-08T11:22:26.923Z,25.95
2018-05-08T11:23:26.903Z,25.90
2018-05-08T11:24:26.888Z,25.95
2018-05-08T11:25:26.862Z,25.98
2018-05-08T11:26:26.941Z,26.06
2018-05-08T11:27:26.820Z,26.06
2018-05-08T11:28:26.797Z,26.02
2018-05-08T11:29:26.777Z,26.13
2018-05-08T11:30:26.756Z,26.21
2018-05-08T11:31:26.730Z,26.25
2018-05-08T11:32:26.715Z,26.25
2018-05-08T11:33:26.698Z,26.37
2018-05-08T11:34:26.676Z,26.29
2018-05-08T11:35:26.652Z,26.45
2018-05-08T11:36:26.627Z,26.45
2018-05-08T11:37:26.620Z,26.52
2018-05-08T11:38:26.610Z,26.47
2018-05-08T11:39:26.621Z,26.45
2018-05-08T11:40:26.541Z,26.55
2018-05-08T11:41:26.526Z,26.51
2018-05-08T11:42:26.506Z,26.47
2018-05-08T11:43:26.477Z,26.58
2018-05-08T11:44:26.463Z,26.53
2018-05-08T11:45:26.439Z,26.53
2018-05-08T11:46:26.422Z,26.51
2018-05-08T11:47:26.394Z,26.48
2018-05-08T11:48:26.380Z,26.43
2018-05-08T11:49:26.364Z,26.36
2018-05-08T11:50:26.339Z,26.38
2018-05-08T11:51:26.308Z,26.43
2018-05-08T11:52:26.290Z,26.45
2018-05-08T11:53:26.278Z,26.56
2018-05-08T11:54:26.246Z,26.52
2018-05-08T11:55:26.230Z,26.62
2018-05-08T11:56:26.209Z,26.53
2018-05-08T11:57:26.188Z,26.55
2018-05-08T11:58:26.166Z,26.66
2018-05-08T11:59:26.144Z,26.77
2018-05-08T12:00:26.125Z,26.75
2018-05-08T12:01:26.101Z,26.77
2018-05-08T12:02:26.083Z,26.73
2018-05-08T12:03:26.057Z,26.93
2018-05-08T12:04:26.041Z,26.85
2018-05-08T12:05:26.023Z,26.90
2018-05-08T12:06:25.997Z,26.95
2018-05-08T12:07:25.975Z,26.99
2018-05-08T12:08:25.953Z,27.05
2018-05-08T12:09:25.939Z,27.02
2018-05-08T12:10:25.913Z,27.05
2018-05-08T12:11:25.899Z,27.05
2018-05-08T12:12:25.872Z,27.07
2018-05-08T12:13:25.852Z,27.08
2018-05-08T12:14:25.854Z,27.15
2018-05-08T12:15:25.808Z,27.08
2018-05-08T12:16:25.793Z,27.11
2018-05-08T12:17:25.773Z,27.05
2018-05-08T12:18:25.748Z,27.05
2018-05-08T12:19:25.740Z,27.05
2018-05-08T12:20:25.709Z,26.99
2018-05-08T12:21:25.680Z,27.07
2018-05-08T12:22:25.670Z,27.00
2018-05-08T12:23:25.641Z,27.05
2018-05-08T12:24:25.624Z,27.14
2018-05-08T12:25:25.605Z,27.07
2018-05-08T12:26:25.579Z,27.00
2018-05-08T12:27:25.558Z,27.12
2018-05-08T12:28:25.545Z,27.12
2018-05-08T12:29:25.520Z,27.18
2018-05-08T12:30:25.502Z,27.17
2018-05-08T12:31:25.482Z,27.22
2018-05-08T12:32:25.454Z,27.20
2018-05-08T12:33:25.442Z,27.21
2018-05-08T12:34:25.415Z,27.14
2018-05-08T12:35:25.395Z,27.21
2018-05-08T12:36:25.377Z,27.33
2018-05-08T12:37:25.358Z,27.36
2018-05-08T12:38:25.327Z,27.35
2018-05-08T12:39:25.316Z,27.39
2018-05-08T12:40:25.288Z,27.33
2018-05-08T12:41:25.264Z,27.32
2018-05-08T12:42:25.253Z,27.33
2018-05-08T12:43:25.236Z,27.36
2018-05-08T12:44:25.260Z,27.39
2018-05-08T12:45:25.191Z,27.39
2018-05-08T12:46:25.160Z,27.40
2018-05-08T12:47:25.141Z,27.47
2018-05-08T12:48:25.129Z,27.48
2018-05-08T12:49:25.099Z,27.45
2018-05-08T12:50:25.140Z,27.54
2018-05-08T12:51:25.061Z,27.49
2018-05-08T12:52:25.046Z,27.49